Todds Mill, Illinois
Current Conditions -  °F | °C
As of 2:55 PM on Sunday 23 Nov 2014 (Local Time) from KSAR Reporting Station
Moderate Rain Moderate Rain  
Wind Chill: 53°   Ceiling: 400
Heat Index: 53°   Visibility: 7mi
Dew Point: 52°   Wind: 10mph
Humidity: 97%   Direction: 120°ESE
Pressure: 29.38"   Gusts: NA
Location:  38.318°N, 89.3879°W
Report Text: KSAR 232055Z AUTO 12009KT 7SM RA OVC004 12/11 A2938 RMK AO2 60004 T01160112
Loading
Personal Weather Stations






























Interactive Weather Map New forecast layout! Learn more

10-Day Weather Forecast

Advertisements
Track Severe Weather on mobile